createdAt,value
2018-08-23T00:01:15.098Z,25.7
2018-08-23T00:01:25.600Z,25.8
2018-08-23T00:02:16.763Z,25.8
2018-08-23T00:03:06.456Z,25.7
2018-08-23T00:03:57.356Z,25.8
2018-08-23T00:04:45.610Z,25.8
2018-08-23T00:05:35.787Z,25.7
2018-08-23T00:06:26.065Z,25.7
2018-08-23T00:07:16.316Z,25.8
2018-08-23T00:08:07.332Z,25.8
2018-08-23T00:08:57.875Z,25.7
2018-08-23T00:09:47.003Z,25.7
2018-08-23T00:10:37.365Z,25.8
2018-08-23T00:11:27.386Z,25.7
2018-08-23T00:12:17.241Z,25.7
2018-08-23T00:31:33.984Z,25.7
2018-08-23T00:32:24.628Z,25.7
2018-08-23T00:33:14.348Z,25.7
2018-08-23T00:34:04.423Z,25.6
2018-08-23T00:34:54.873Z,25.6
2018-08-23T00:35:44.569Z,25.7
2018-08-23T00:36:33.257Z,25.7
2018-08-23T00:37:24.103Z,25.6
2018-08-23T00:38:13.353Z,25.7
2018-08-23T00:39:04.588Z,25.6
2018-08-23T00:39:55.198Z,25.6
2018-08-23T00:40:45.065Z,25.6
2018-08-23T00:41:34.518Z,25.6
2018-08-23T00:42:24.537Z,25.6
2018-08-23T00:43:14.532Z,25.6
2018-08-23T00:44:04.663Z,25.6
2018-08-23T00:44:52.458Z,25.6
2018-08-23T00:45:44.252Z,25.6
2018-08-23T00:46:34.888Z,25.6
2018-08-23T00:47:25.123Z,25.6
2018-08-23T00:48:14.949Z,25.6
2018-08-23T00:49:03.838Z,25.6
2018-08-23T00:49:54.789Z,25.6
2018-08-23T00:50:43.960Z,25.6
2018-08-23T00:51:34.315Z,25.6
2018-08-23T00:52:25.874Z,25.6
2018-08-23T00:53:16.534Z,25.6
2018-08-23T00:54:05.523Z,25.6
2018-08-23T00:54:56.090Z,25.6
2018-08-23T00:55:44.930Z,25.6
2018-08-23T00:56:34.478Z,25.6
2018-08-23T00:57:24.537Z,25.6
2018-08-23T00:58:15.986Z,25.6
2018-08-23T00:59:06.910Z,25.6
2018-08-23T00:59:56.875Z,25.6
2018-08-23T01:00:46.408Z,25.6
2018-08-23T01:01:36.820Z,25.6
2018-08-23T01:02:27.110Z,25.6
2018-08-23T01:03:16.383Z,25.6
2018-08-23T01:04:06.140Z,25.6
2018-08-23T01:04:57.039Z,25.6
2018-08-23T01:05:46.772Z,25.6
2018-08-23T01:06:36.877Z,25.6
2018-08-23T01:07:27.222Z,25.6
2018-08-23T01:08:16.762Z,25.6
2018-08-23T01:09:07.369Z,25.6
2018-08-23T01:09:57.694Z,25.6
2018-08-23T01:10:46.649Z,25.6
2018-08-23T01:11:37.032Z,25.6
2018-08-23T01:12:27.613Z,25.6
2018-08-23T01:13:17.113Z,25.5
2018-08-23T01:14:07.475Z,25.6
2018-08-23T01:14:57.294Z,25.5
2018-08-23T01:15:46.735Z,25.5
2018-08-23T01:16:37.369Z,25.5
2018-08-23T01:17:27.738Z,25.6
2018-08-23T01:18:15.519Z,25.5
2018-08-23T01:19:05.564Z,25.5
2018-08-23T01:19:57.689Z,25.5
2018-08-23T01:20:46.881Z,25.5
2018-08-23T01:21:38.114Z,25.5
2018-08-23T01:22:27.926Z,25.5
2018-08-23T01:23:18.261Z,25.5
2018-08-23T01:24:07.670Z,25.5
2018-08-23T01:24:58.430Z,25.5
2018-08-23T01:25:46.976Z,25.5
2018-08-23T01:26:37.374Z,25.5
2018-08-23T01:27:28.505Z,25.5
2018-08-23T01:28:18.368Z,25.5
2018-08-23T01:29:07.791Z,25.5
2018-08-23T01:29:57.576Z,25.5
2018-08-23T01:30:48.226Z,25.5
2018-08-23T01:31:38.887Z,25.5
2018-08-23T01:32:28.698Z,25.5
2018-08-23T01:33:18.721Z,25.5
2018-08-23T01:34:07.598Z,25.5
2018-08-23T01:34:58.770Z,25.5
2018-08-23T01:35:48.875Z,25.5
2018-08-23T01:36:39.715Z,25.5
2018-08-23T01:37:29.237Z,25.4
2018-08-23T01:38:18.771Z,25.4
2018-08-23T01:39:09.378Z,25.4
2018-08-23T01:39:59.120Z,25.5
2018-08-23T01:40:49.783Z,25.5
2018-08-23T01:41:39.325Z,25.4
2018-08-23T01:42:28.563Z,25.4
2018-08-23T01:43:19.968Z,25.5
2018-08-23T01:44:09.988Z,25.4
2018-08-23T01:44:59.495Z,25.5
2018-08-23T01:45:48.461Z,25.4
2018-08-23T01:46:39.385Z,25.4
2018-08-23T01:47:29.690Z,25.4
2018-08-23T01:48:20.350Z,25.4
2018-08-23T01:49:09.869Z,25.4
2018-08-23T01:49:59.867Z,25.4
2018-08-23T01:50:49.665Z,25.4
2018-08-23T01:51:39.312Z,25.4
2018-08-23T01:52:32.135Z,25.5
2018-08-23T01:53:19.982Z,25.4
2018-08-23T01:54:10.622Z,25.5
2018-08-23T01:54:59.777Z,25.4
2018-08-23T01:55:48.816Z,25.4
2018-08-23T01:56:39.699Z,25.4
2018-08-23T01:57:29.374Z,25.4
2018-08-23T01:58:19.999Z,25.4
2018-08-23T01:59:10.512Z,25.4
2018-08-23T01:59:58.997Z,25.4
2018-08-23T02:00:50.241Z,25.4
2018-08-23T02:01:40.322Z,25.4
2018-08-23T02:02:30.896Z,25.4
2018-08-23T02:03:21.014Z,25.4
2018-08-23T02:04:09.974Z,25.4
2018-08-23T02:05:00.281Z,25.4
2018-08-23T02:05:50.921Z,25.4
2018-08-23T02:06:39.830Z,25.4
2018-08-23T02:07:30.185Z,25.4
2018-08-23T02:08:21.992Z,25.4
2018-08-23T02:09:10.534Z,25.4
2018-08-23T02:10:02.031Z,25.4
2018-08-23T02:10:51.751Z,25.4
2018-08-23T02:11:41.856Z,25.4
2018-08-23T02:12:32.455Z,25.4
2018-08-23T02:13:22.052Z,25.4
2018-08-23T02:14:11.791Z,25.4
2018-08-23T02:15:02.417Z,25.4
2018-08-23T02:15:52.268Z,25.4
2018-08-23T02:16:41.931Z,25.4
2018-08-23T02:17:32.838Z,25.4
2018-08-23T02:18:22.071Z,25.4
2018-08-23T02:19:12.278Z,25.4
2018-08-23T02:20:01.795Z,25.4
2018-08-23T02:20:52.021Z,25.4
2018-08-23T02:21:42.565Z,25.4
2018-08-23T02:22:32.161Z,25.4
2018-08-23T02:23:22.402Z,25.4
2018-08-23T02:24:12.238Z,25.4
2018-08-23T02:25:02.684Z,25.4
2018-08-23T02:25:52.149Z,25.4
2018-08-23T02:26:42.480Z,25.4
2018-08-23T02:27:31.030Z,25.4
2018-08-23T02:28:21.743Z,25.4
2018-08-23T02:29:11.925Z,25.4
2018-08-23T02:30:03.127Z,25.4
2018-08-23T02:30:53.223Z,25.4
2018-08-23T02:31:43.195Z,25.4
2018-08-23T02:32:32.338Z,25.4
2018-08-23T02:33:22.734Z,25.4
2018-08-23T02:34:13.593Z,25.4
2018-08-23T02:35:03.132Z,25.4
2018-08-23T02:35:54.071Z,25.4
2018-08-23T02:36:44.101Z,25.4
2018-08-23T02:37:32.414Z,25.4
2018-08-23T02:38:24.700Z,25.4
2018-08-23T02:39:12.960Z,25.4
2018-08-23T02:40:03.273Z,25.4
2018-08-23T02:40:53.598Z,25.4
2018-08-23T02:41:44.210Z,25.3
2018-08-23T02:42:34.255Z,25.4
2018-08-23T02:43:23.916Z,25.4
2018-08-23T02:44:13.630Z,25.4
2018-08-23T02:45:03.690Z,25.4
2018-08-23T02:45:54.297Z,25.3
2018-08-23T02:46:44.249Z,25.4
2018-08-23T02:47:34.688Z,25.4
2018-08-23T02:48:24.954Z,25.4
2018-08-23T02:49:15.047Z,25.4
2018-08-23T02:50:05.089Z,25.4
2018-08-23T02:50:55.229Z,25.4
2018-08-23T02:51:44.674Z,25.4
2018-08-23T02:52:34.655Z,25.4
2018-08-23T02:53:23.918Z,25.3
2018-08-23T02:54:14.860Z,25.4
2018-08-23T02:55:04.616Z,25.4
2018-08-23T02:55:54.357Z,25.3
2018-08-23T02:56:44.502Z,25.3
2018-08-23T02:57:34.338Z,25.3
2018-08-23T02:58:24.587Z,25.3
2018-08-23T02:59:15.604Z,25.3
2018-08-23T03:00:04.770Z,25.3
2018-08-23T03:00:54.299Z,25.3
2018-08-23T03:01:46.062Z,25.3
2018-08-23T03:02:34.927Z,25.3
2018-08-23T03:03:25.902Z,25.3
2018-08-23T03:04:16.270Z,25.3
2018-08-23T03:05:05.212Z,25.3
2018-08-23T03:05:55.224Z,25.3
2018-08-23T03:06:46.489Z,25.3
2018-08-23T03:07:36.014Z,25.3
2018-08-23T03:08:25.453Z,25.3
2018-08-23T03:09:15.814Z,25.3
2018-08-23T03:10:06.203Z,25.3
2018-08-23T03:10:56.204Z,25.3
2018-08-23T03:11:46.799Z,25.3
2018-08-23T03:12:36.287Z,25.3
2018-08-23T03:13:25.908Z,25.3
2018-08-23T03:14:16.911Z,25.3
2018-08-23T03:15:06.829Z,25.3
2018-08-23T03:15:55.109Z,25.3
2018-08-23T03:16:47.000Z,25.3
2018-08-23T03:17:37.006Z,25.3
2018-08-23T03:18:27.010Z,25.3
2018-08-23T03:19:16.507Z,25.3
2018-08-23T03:20:06.683Z,25.3
2018-08-23T03:20:57.468Z,25.3
2018-08-23T03:21:47.193Z,25.3
2018-08-23T03:22:37.016Z,25.3
2018-08-23T03:23:27.098Z,25.3
2018-08-23T03:24:17.425Z,25.3
2018-08-23T03:25:07.507Z,25.3
2018-08-23T03:25:56.713Z,25.3
2018-08-23T03:26:47.887Z,25.3
2018-08-23T03:27:36.269Z,25.2
2018-08-23T03:28:27.505Z,25.3
2018-08-23T03:29:17.533Z,25.3
2018-08-23T03:30:07.621Z,25.3
2018-08-23T03:30:58.053Z,25.3
2018-08-23T03:31:48.061Z,25.3
2018-08-23T03:32:37.310Z,25.3
2018-08-23T03:33:27.315Z,25.3
2018-08-23T03:34:18.519Z,25.3
2018-08-23T03:35:07.734Z,25.3
2018-08-23T03:35:57.779Z,25.3
2018-08-23T03:36:48.364Z,25.3
2018-08-23T03:37:38.506Z,25.3
2018-08-23T03:38:29.115Z,25.3
2018-08-23T03:39:17.979Z,25.3
2018-08-23T03:40:08.548Z,25.3
2018-08-23T03:40:58.449Z,25.3
2018-08-23T03:41:48.807Z,25.3
2018-08-23T03:42:38.637Z,25.3
2018-08-23T03:43:28.897Z,25.2
2018-08-23T03:44:17.872Z,25.2
2018-08-23T03:45:09.109Z,25.3
2018-08-23T03:45:59.456Z,25.2
2018-08-23T03:46:48.298Z,25.2
2018-08-23T03:47:38.672Z,25.2
2018-08-23T03:48:29.924Z,25.2
2018-08-23T03:49:18.531Z,25.2
2018-08-23T03:50:06.037Z,25.3
2018-08-23T03:50:57.799Z,25.2
2018-08-23T03:51:49.102Z,25.3
2018-08-23T03:52:39.588Z,25.2
2018-08-23T03:53:28.567Z,25.2
2018-08-23T03:54:19.515Z,25.3
2018-08-23T03:55:08.491Z,25.2
2018-08-23T03:56:00.184Z,25.2
2018-08-23T03:56:49.341Z,25.2
2018-08-23T03:57:39.477Z,25.2
2018-08-23T03:58:29.264Z,25.2
2018-08-23T03:59:20.154Z,25.2
2018-08-23T04:00:10.271Z,25.2
2018-08-23T04:01:00.539Z,25.1
2018-08-23T04:01:51.109Z,25.2
2018-08-23T04:02:39.566Z,25.2
2018-08-23T04:03:29.871Z,25.2
2018-08-23T04:04:20.243Z,25.2
2018-08-23T04:05:10.004Z,25.2
2018-08-23T04:05:59.808Z,25.2
2018-08-23T04:06:49.906Z,25.2
2018-08-23T04:07:39.950Z,25.2
2018-08-23T04:08:30.593Z,25.2
2018-08-23T04:09:20.312Z,25.2
2018-08-23T04:10:11.535Z,25.2
2018-08-23T04:10:59.901Z,25.2
2018-08-23T04:11:51.357Z,25.2
2018-08-23T04:12:40.580Z,25.2
2018-08-23T04:13:30.649Z,25.1
2018-08-23T04:14:20.527Z,25.1
2018-08-23T04:15:10.907Z,25.2
2018-08-23T04:16:00.907Z,25.2
2018-08-23T04:16:51.275Z,25.1
2018-08-23T04:17:40.442Z,25.2
2018-08-23T04:18:31.651Z,25.1
2018-08-23T04:19:21.993Z,25.1
2018-08-23T04:20:11.829Z,25.1
2018-08-23T04:21:02.448Z,25.1
2018-08-23T04:21:51.952Z,25.2
2018-08-23T04:22:42.197Z,25.1
2018-08-23T04:23:31.165Z,25.1
2018-08-23T04:24:21.850Z,25.2
2018-08-23T04:25:12.506Z,25.1
2018-08-23T04:26:02.290Z,25.1
2018-08-23T04:26:52.563Z,25.1
2018-08-23T04:27:41.794Z,25.1
2018-08-23T04:28:31.616Z,25.1
2018-08-23T04:29:22.131Z,25.1
2018-08-23T04:30:10.810Z,25.1
2018-08-23T04:31:02.383Z,25.1
2018-08-23T04:31:52.956Z,25.2
2018-08-23T04:32:42.158Z,25.1
2018-08-23T04:33:32.769Z,25.1
2018-08-23T04:34:21.923Z,25.1
2018-08-23T04:35:12.881Z,25.1
2018-08-23T04:36:03.276Z,25.1
2018-08-23T04:36:52.768Z,25.1
2018-08-23T04:37:42.840Z,25.1
2018-08-23T04:38:32.906Z,25.1
2018-08-23T04:39:22.903Z,25.1
2018-08-23T04:40:13.066Z,25.1
2018-08-23T04:41:02.914Z,25.1
2018-08-23T04:41:53.131Z,25.1
2018-08-23T04:42:42.915Z,25.1
2018-08-23T05:00:39.823Z,25
2018-08-23T05:01:30.828Z,25.1
2018-08-23T05:02:20.286Z,25.1
2018-08-23T05:03:10.582Z,25.1
2018-08-23T05:04:01.320Z,25.1
2018-08-23T05:04:50.700Z,25.1
2018-08-23T05:05:40.797Z,25.1
2018-08-23T05:06:30.651Z,25.1
2018-08-23T05:07:21.240Z,25.1
2018-08-23T05:08:11.496Z,25.1
2018-08-23T05:09:00.721Z,25.1
2018-08-23T05:09:50.520Z,25.1
2018-08-23T05:10:40.464Z,25.1
2018-08-23T05:11:31.025Z,25.1
2018-08-23T05:12:21.312Z,25.1
2018-08-23T05:13:10.237Z,25.1
2018-08-23T05:14:02.014Z,25.1
2018-08-23T05:14:51.412Z,25.1
2018-08-23T05:15:40.790Z,25.1
2018-08-23T05:16:31.089Z,25.1
2018-08-23T05:17:20.344Z,25.1
2018-08-23T05:18:11.207Z,25.1
2018-08-23T05:19:00.798Z,25.1
2018-08-23T05:19:51.919Z,25.1
2018-08-23T05:20:42.325Z,25.1
2018-08-23T05:21:31.476Z,25.1
2018-08-23T05:22:21.986Z,25.1
2018-08-23T05:23:12.724Z,25.1
2018-08-23T05:24:02.201Z,25.1
2018-08-23T05:24:52.527Z,25.1
2018-08-23T05:25:42.591Z,25.1
2018-08-23T05:26:32.091Z,25.1
2018-08-23T05:27:21.869Z,25.1
2018-08-23T05:28:12.556Z,25.1
2018-08-23T05:29:02.610Z,25.1
2018-08-23T05:29:54.403Z,25.1
2018-08-23T05:30:43.034Z,25.1
2018-08-23T05:31:32.732Z,25.1
2018-08-23T05:32:22.496Z,25.1
2018-08-23T05:33:13.456Z,25.1
2018-08-23T05:34:02.684Z,25.1
2018-08-23T05:34:52.216Z,25.1
2018-08-23T05:35:42.561Z,25.1
2018-08-23T05:36:33.408Z,25.2
2018-08-23T05:37:22.679Z,25.2
2018-08-23T05:38:13.808Z,25.2
2018-08-23T05:39:03.186Z,25.2
2018-08-23T05:39:52.548Z,25.2
2018-08-23T05:40:43.685Z,25.2
2018-08-23T05:41:32.946Z,25.2
2018-08-23T05:42:23.238Z,25.2
2018-08-23T05:43:13.308Z,25.2
2018-08-23T05:44:03.657Z,25.2
2018-08-23T05:44:53.450Z,25.2
2018-08-23T05:45:43.810Z,25.2
2018-08-23T05:46:34.585Z,25.2
2018-08-23T05:47:23.682Z,25.2
2018-08-23T05:48:13.852Z,25.2
2018-08-23T05:49:04.155Z,25.2
2018-08-23T05:49:54.165Z,25.2
2018-08-23T05:50:44.018Z,25.3
2018-08-23T05:51:34.287Z,25.3
2018-08-23T05:52:24.350Z,25.3
2018-08-23T05:53:14.140Z,25.3
2018-08-23T05:54:03.926Z,25.2
2018-08-23T05:54:53.421Z,25.2
2018-08-23T05:55:45.018Z,25.1
2018-08-23T05:56:33.287Z,25.2
2018-08-23T05:57:24.784Z,25.1
2018-08-23T05:58:14.554Z,25.2
2018-08-23T05:59:04.060Z,25.1
2018-08-23T05:59:54.709Z,25.1
2018-08-23T06:00:44.537Z,25.2
2018-08-23T06:01:35.094Z,25.1
2018-08-23T06:02:24.589Z,25.1
2018-08-23T06:03:15.639Z,25.1
2018-08-23T06:04:04.939Z,25.1
2018-08-23T06:04:55.063Z,25.1
2018-08-23T06:05:45.732Z,25.1
2018-08-23T06:06:35.712Z,25.1
2018-08-23T06:07:25.835Z,25.1
2018-08-23T06:08:15.529Z,25.1
2018-08-23T06:09:05.662Z,25.2
2018-08-23T06:09:55.944Z,25.1
2018-08-23T06:10:45.717Z,25.1
2018-08-23T06:11:35.600Z,25.1
2018-08-23T06:12:25.625Z,25.1
2018-08-23T06:13:15.672Z,25.2
2018-08-23T06:14:05.615Z,25.1
2018-08-23T06:14:56.631Z,25.1
2018-08-23T06:15:46.380Z,25.1
2018-08-23T06:16:36.170Z,25.1
2018-08-23T06:17:25.956Z,25.1
2018-08-23T06:18:16.849Z,25.1
2018-08-23T06:19:06.366Z,25.1
2018-08-23T06:19:57.681Z,25.1
2018-08-23T06:20:47.048Z,25.1
2018-08-23T06:21:36.629Z,25
2018-08-23T06:22:27.283Z,25
2018-08-23T06:23:15.616Z,25
2018-08-23T06:24:03.887Z,25
2018-08-23T06:24:55.276Z,25
2018-08-23T06:25:46.083Z,24.9
2018-08-23T06:26:35.343Z,24.9
2018-08-23T06:27:24.566Z,24.9
2018-08-23T06:28:15.781Z,24.9
2018-08-23T06:29:04.692Z,24.9
2018-08-23T06:29:55.910Z,24.9
2018-08-23T06:30:44.585Z,24.9
2018-08-23T06:31:34.392Z,24.9
2018-08-23T06:32:24.894Z,24.9
2018-08-23T06:33:17.910Z,24.9
2018-08-23T06:34:07.398Z,24.9
2018-08-23T06:34:56.170Z,24.9
2018-08-23T06:35:45.799Z,24.9
2018-08-23T06:36:35.788Z,24.9
2018-08-23T06:37:25.778Z,24.9
2018-08-23T06:38:15.691Z,24.9
2018-08-23T06:39:05.152Z,24.9
2018-08-23T06:39:56.650Z,24.9
2018-08-23T06:40:47.072Z,24.9
2018-08-23T06:41:36.663Z,24.9
2018-08-23T06:42:27.455Z,24.9
2018-08-23T06:43:16.225Z,24.9
2018-08-23T06:44:05.835Z,24.9
2018-08-23T06:44:56.119Z,24.9
2018-08-23T06:45:46.136Z,24.8
2018-08-23T06:46:50.923Z,24.9
2018-08-23T06:47:26.384Z,24.9
2018-08-23T06:48:16.857Z,24.9
2018-08-23T06:49:07.317Z,24.8
2018-08-23T06:49:56.527Z,24.9
2018-08-23T06:50:46.260Z,24.8
2018-08-23T06:51:36.307Z,24.8
2018-08-23T06:52:26.855Z,24.8
2018-08-23T06:53:17.895Z,24.8
2018-08-23T06:54:07.283Z,24.8
2018-08-23T06:54:57.442Z,24.8
2018-08-23T06:55:46.828Z,24.8
2018-08-23T06:56:37.848Z,24.8
2018-08-23T06:57:27.030Z,24.8
2018-08-23T06:58:17.822Z,24.8
2018-08-23T06:59:07.426Z,24.8
2018-08-23T06:59:57.001Z,24.8
2018-08-23T07:00:47.634Z,24.8
2018-08-23T07:01:38.011Z,24.8
2018-08-23T07:02:27.362Z,24.8
2018-08-23T07:03:18.121Z,24.8
2018-08-23T07:04:08.161Z,24.8
2018-08-23T07:04:59.041Z,24.8
2018-08-23T07:05:47.842Z,24.8
2018-08-23T07:06:39.163Z,24.8
2018-08-23T07:07:28.073Z,24.8
2018-08-23T07:08:18.766Z,24.8
2018-08-23T07:09:07.885Z,24.8
2018-08-23T07:09:58.130Z,24.8
2018-08-23T07:10:49.236Z,24.8
2018-08-23T07:11:38.080Z,24.8
2018-08-23T07:12:28.499Z,24.8
2018-08-23T07:13:18.226Z,24.8
2018-08-23T07:14:08.445Z,24.8
2018-08-23T07:14:58.580Z,24.8
2018-08-23T07:15:47.972Z,24.8
2018-08-23T07:16:39.339Z,24.8
2018-08-23T07:17:28.348Z,24.8
2018-08-23T07:18:18.432Z,24.8
2018-08-23T07:19:08.278Z,24.8
2018-08-23T07:19:58.707Z,24.8
2018-08-23T07:20:48.173Z,24.8
2018-08-23T07:21:38.158Z,24.8
2018-08-23T07:22:30.697Z,24.8
2018-08-23T07:23:16.924Z,24.8
2018-08-23T07:24:09.774Z,24.8
2018-08-23T07:24:58.603Z,24.8
2018-08-23T07:25:49.193Z,24.8
2018-08-23T07:26:40.525Z,24.8
2018-08-23T07:27:28.722Z,24.8
2018-08-23T07:28:20.590Z,24.8
2018-08-23T07:29:10.022Z,24.8
2018-08-23T07:30:06.031Z,24.8
2018-08-23T07:30:51.599Z,24.8
2018-08-23T07:31:42.723Z,24.8
2018-08-23T07:32:31.597Z,24.8
2018-08-23T07:33:23.631Z,24.9
2018-08-23T07:34:12.267Z,24.9
2018-08-23T07:35:02.085Z,24.8
2018-08-23T07:35:53.032Z,24.9
2018-08-23T07:36:41.836Z,24.9
2018-08-23T07:37:30.886Z,24.9
2018-08-23T07:38:22.882Z,24.9
2018-08-23T07:39:13.484Z,24.9
2018-08-23T07:40:02.367Z,24.9
2018-08-23T07:40:53.391Z,24.9
2018-08-23T07:41:43.193Z,24.9
2018-08-23T07:42:31.626Z,24.9
2018-08-23T07:43:22.621Z,24.9
2018-08-23T07:44:12.219Z,24.9
2018-08-23T07:45:02.582Z,24.9
2018-08-23T07:45:53.824Z,24.9
2018-08-23T07:46:42.201Z,24.9
2018-08-23T07:47:33.056Z,24.9
2018-08-23T07:48:22.306Z,24.9
2018-08-23T07:49:12.687Z,24.9
2018-08-23T07:50:03.694Z,24.9
2018-08-23T07:50:53.598Z,24.9
2018-08-23T07:51:43.969Z,24.9
2018-08-23T07:52:34.221Z,24.9
2018-08-23T07:53:26.720Z,24.9
2018-08-23T07:54:14.104Z,25
2018-08-23T07:55:03.412Z,24.9
2018-08-23T07:55:54.141Z,24.9
2018-08-23T07:56:43.262Z,24.9
2018-08-23T07:57:34.070Z,24.9
2018-08-23T07:58:24.458Z,25
2018-08-23T07:59:14.743Z,25
2018-08-23T08:00:04.278Z,25
2018-08-23T08:00:54.624Z,25
2018-08-23T08:01:44.590Z,25
2018-08-23T08:02:34.703Z,25
2018-08-23T08:03:24.493Z,25
2018-08-23T08:04:14.400Z,25
2018-08-23T08:05:04.518Z,25
2018-08-23T08:05:54.895Z,25
2018-08-23T08:06:43.670Z,25
2018-08-23T08:07:35.151Z,25
2018-08-23T08:08:24.617Z,25
2018-08-23T08:09:14.997Z,25
2018-08-23T08:10:04.263Z,25.1
2018-08-23T08:10:55.180Z,25
2018-08-23T08:11:45.732Z,25.1
2018-08-23T08:12:34.998Z,25.1
2018-08-23T08:13:25.637Z,25
2018-08-23T08:14:16.043Z,25
2018-08-23T08:15:08.808Z,25.1
2018-08-23T08:15:55.798Z,25.1
2018-08-23T08:16:45.917Z,25.1
2018-08-23T08:17:35.233Z,25.1
2018-08-23T08:18:25.208Z,25.1
2018-08-23T08:19:15.830Z,25.1
2018-08-23T08:20:05.829Z,25.1
2018-08-23T08:20:57.772Z,25.1
2018-08-23T08:21:47.290Z,25.1
2018-08-23T08:22:36.386Z,25.1
2018-08-23T08:23:26.498Z,25.1
2018-08-23T08:24:14.576Z,25.1
2018-08-23T08:25:06.048Z,25.1
2018-08-23T08:25:56.491Z,25.1
2018-08-23T08:26:46.048Z,25.1
2018-08-23T08:27:36.202Z,25.1
2018-08-23T08:28:26.844Z,25.1
2018-08-23T08:29:17.369Z,25.1
2018-08-23T08:30:06.941Z,25.1
2018-08-23T08:30:56.569Z,25.1
2018-08-23T08:31:47.110Z,25.1
2018-08-23T08:32:37.844Z,25.1
2018-08-23T08:33:28.014Z,25.1
2018-08-23T08:34:17.009Z,25.1
2018-08-23T08:35:07.464Z,25.1
2018-08-23T08:35:56.884Z,25.1
2018-08-23T08:36:48.036Z,25.1
2018-08-23T08:37:38.236Z,25.2
2018-08-23T08:38:27.858Z,25.1
2018-08-23T08:39:17.541Z,25.1
2018-08-23T08:40:07.723Z,25.1
2018-08-23T08:40:58.198Z,25.1
2018-08-23T08:41:47.576Z,25.2
2018-08-23T08:42:38.138Z,25.2
2018-08-23T08:43:27.168Z,25.2
2018-08-23T08:44:18.468Z,25.2
2018-08-23T08:45:08.270Z,25.2
2018-08-23T08:45:58.372Z,25.2
2018-08-23T08:46:48.858Z,25.2
2018-08-23T08:47:38.545Z,25.2
2018-08-23T08:48:27.858Z,25.2
2018-08-23T08:49:17.595Z,25.2
2018-08-23T08:50:08.428Z,25.2
2018-08-23T08:50:59.334Z,25.2
2018-08-23T08:51:47.910Z,25.2
2018-08-23T08:52:38.297Z,25.2
2018-08-23T08:53:28.639Z,25.2
2018-08-23T08:54:19.017Z,25.2
2018-08-23T08:55:07.266Z,25.2
2018-08-23T08:55:58.352Z,25.2
2018-08-23T08:56:49.774Z,25.2
2018-08-23T08:57:39.676Z,25.3
2018-08-23T08:58:29.564Z,25.3
2018-08-23T09:15:07.625Z,25.3
2018-08-23T09:15:57.462Z,25.3
2018-08-23T09:16:47.832Z,25.3
2018-08-23T09:17:37.363Z,25.3
2018-08-23T09:18:28.131Z,25.4
2018-08-23T09:19:17.458Z,25.3
2018-08-23T09:20:08.126Z,25.4
2018-08-23T09:20:59.394Z,25.4
2018-08-23T09:21:47.863Z,25.4
2018-08-23T09:22:38.306Z,25.4
2018-08-23T09:23:28.213Z,25.4
2018-08-23T09:24:17.496Z,25.4
2018-08-23T09:25:08.787Z,25.4
2018-08-23T09:25:57.905Z,25.4
2018-08-23T09:26:48.313Z,25.4
2018-08-23T09:27:38.426Z,25.4
2018-08-23T09:28:27.384Z,25.4
2018-08-23T09:29:18.102Z,25.4
2018-08-23T09:30:08.961Z,25.4
2018-08-23T09:30:57.489Z,25.4
2018-08-23T09:31:48.759Z,25.4
2018-08-23T09:32:39.110Z,25.4
2018-08-23T09:33:28.858Z,25.4
2018-08-23T09:34:19.174Z,25.4
2018-08-23T09:35:11.320Z,25.4
2018-08-23T09:35:58.619Z,25.4
2018-08-23T09:36:49.363Z,25.4
2018-08-23T09:37:38.328Z,25.4
2018-08-23T09:38:28.996Z,25.4
2018-08-23T09:39:18.460Z,25.4
2018-08-23T09:40:09.980Z,25.4
2018-08-23T09:40:59.185Z,25.4
2018-08-23T09:41:49.455Z,25.4
2018-08-23T09:42:39.186Z,25.4
2018-08-23T09:43:29.880Z,25.4
2018-08-23T09:44:18.815Z,25.4
2018-08-23T09:45:09.965Z,25.4
2018-08-23T09:45:58.960Z,25.4
2018-08-23T09:46:49.525Z,25.4
2018-08-23T09:47:38.206Z,25.4
2018-08-23T09:48:29.411Z,25.4
2018-08-23T09:49:19.715Z,25.4
2018-08-23T09:50:11.523Z,25.5
2018-08-23T09:51:02.228Z,25.4
2018-08-23T09:51:50.544Z,25.4
2018-08-23T09:52:40.279Z,25.4
2018-08-23T09:53:30.668Z,25.4
2018-08-23T09:54:19.940Z,25.4
2018-08-23T09:55:10.251Z,25.5
2018-08-23T09:55:59.842Z,25.4
2018-08-23T09:56:52.005Z,25.4
2018-08-23T09:57:40.087Z,25.4
2018-08-23T09:58:30.211Z,25.4
2018-08-23T09:59:20.825Z,25.4
2018-08-23T10:00:10.314Z,25.5
2018-08-23T10:01:00.991Z,25.5
2018-08-23T10:01:50.486Z,25.4
2018-08-23T10:02:40.893Z,25.5
2018-08-23T10:03:30.707Z,25.5
2018-08-23T10:04:22.535Z,25.5
2018-08-23T10:05:11.897Z,25.5
2018-08-23T10:06:00.675Z,25.5
2018-08-23T10:06:50.397Z,25.5
2018-08-23T10:07:40.696Z,25.5
2018-08-23T10:08:32.139Z,25.5
2018-08-23T10:09:21.353Z,25.5
2018-08-23T10:10:12.241Z,25.5
2018-08-23T10:11:01.173Z,25.5
2018-08-23T10:11:54.220Z,25.6
2018-08-23T10:12:41.931Z,25.6
2018-08-23T10:13:31.930Z,25.6
2018-08-23T10:14:22.235Z,25.6
2018-08-23T10:15:12.013Z,25.6
2018-08-23T10:16:00.979Z,25.6
2018-08-23T10:16:51.706Z,25.6
2018-08-23T10:17:42.527Z,25.6
2018-08-23T10:18:31.135Z,25.6
2018-08-23T10:19:22.558Z,25.6
2018-08-23T10:20:12.736Z,25.6
2018-08-23T10:21:02.018Z,25.6
2018-08-23T10:21:53.204Z,25.6
2018-08-23T10:22:42.891Z,25.6
2018-08-23T10:23:32.963Z,25.6
2018-08-23T10:24:22.743Z,25.6
2018-08-23T10:25:13.345Z,25.6
2018-08-23T10:26:03.231Z,25.6
2018-08-23T10:26:53.899Z,25.6
2018-08-23T10:27:44.449Z,25.6
2018-08-23T10:28:33.075Z,25.6
2018-08-23T10:29:23.410Z,25.6
2018-08-23T10:30:12.677Z,25.7
2018-08-23T10:31:03.135Z,25.6
2018-08-23T10:31:52.868Z,25.6
2018-08-23T10:32:43.819Z,25.7
2018-08-23T10:33:34.170Z,25.6
2018-08-23T10:34:24.012Z,25.7
2018-08-23T10:35:13.215Z,25.6
2018-08-23T10:36:03.930Z,25.7
2018-08-23T10:36:53.133Z,25.7
2018-08-23T10:37:43.720Z,25.7
2018-08-23T10:38:33.240Z,25.6
2018-08-23T10:39:23.968Z,25.7
2018-08-23T10:40:14.330Z,25.7
2018-08-23T10:41:03.640Z,25.7
2018-08-23T10:41:53.697Z,25.7
2018-08-23T10:42:43.099Z,25.7
2018-08-23T10:43:34.287Z,25.7
2018-08-23T10:44:25.620Z,25.7
2018-08-23T10:45:13.892Z,25.7
2018-08-23T10:46:04.222Z,25.7
2018-08-23T10:46:54.548Z,25.8
2018-08-23T10:47:44.927Z,25.7
2018-08-23T10:48:35.062Z,25.7
2018-08-23T10:49:25.067Z,25.7
2018-08-23T10:50:14.830Z,25.7
2018-08-23T10:51:06.310Z,25.8
2018-08-23T10:51:54.205Z,25.7
2018-08-23T10:52:45.529Z,25.7
2018-08-23T10:53:35.601Z,25.8
2018-08-23T10:54:25.146Z,25.8
2018-08-23T10:55:15.713Z,25.8
2018-08-23T10:56:05.713Z,25.7
2018-08-23T10:56:55.884Z,25.8
2018-08-23T10:57:45.713Z,25.8
2018-08-23T10:58:35.791Z,25.8
2018-08-23T10:59:25.839Z,25.8
2018-08-23T11:00:15.870Z,25.8
2018-08-23T11:01:06.301Z,25.8
2018-08-23T11:01:55.501Z,25.8
2018-08-23T11:02:46.051Z,25.8
2018-08-23T11:03:36.238Z,25.8
2018-08-23T11:04:25.971Z,25.8
2018-08-23T11:05:15.934Z,25.8
2018-08-23T11:06:06.315Z,25.8
2018-08-23T11:06:55.926Z,25.8
2018-08-23T11:07:46.514Z,25.8
2018-08-23T11:08:36.781Z,25.8
2018-08-23T11:09:26.926Z,25.8
2018-08-23T11:10:16.671Z,25.8
2018-08-23T11:11:06.508Z,25.8
2018-08-23T11:11:56.714Z,25.8
2018-08-23T11:12:46.671Z,25.8
2018-08-23T11:13:37.072Z,25.8
2018-08-23T11:14:26.800Z,25.8
2018-08-23T11:15:16.598Z,25.8
2018-08-23T11:16:07.119Z,25.7
2018-08-23T11:16:59.652Z,25.8
2018-08-23T11:17:46.673Z,25.8
2018-08-23T11:18:37.345Z,25.8
2018-08-23T11:19:26.842Z,25.8
2018-08-23T11:20:16.573Z,25.8
2018-08-23T11:21:06.410Z,25.8
2018-08-23T11:21:57.258Z,25.8
2018-08-23T11:22:47.607Z,25.8
2018-08-23T11:23:37.215Z,25.8
2018-08-23T11:24:28.160Z,25.8
2018-08-23T11:25:17.900Z,25.8
2018-08-23T11:26:07.902Z,25.8
2018-08-23T11:26:57.698Z,25.8
2018-08-23T11:27:48.329Z,25.8
2018-08-23T11:28:37.524Z,25.8
2018-08-23T11:29:28.150Z,25.8
2018-08-23T11:30:18.243Z,25.8
2018-08-23T11:31:07.961Z,25.8
2018-08-23T11:31:58.317Z,25.8
2018-08-23T11:32:48.354Z,25.8
2018-08-23T11:33:38.821Z,25.8
2018-08-23T11:34:27.739Z,25.9
2018-08-23T11:35:20.440Z,25.8
2018-08-23T11:36:08.736Z,25.8
2018-08-23T11:36:58.459Z,25.9
2018-08-23T11:37:48.002Z,25.9
2018-08-23T11:38:38.344Z,25.8
2018-08-23T11:39:29.025Z,25.9
2018-08-23T11:40:19.040Z,25.8
2018-08-23T11:41:08.104Z,25.8
2018-08-23T11:41:59.144Z,25.9
2018-08-23T11:42:50.017Z,25.9
2018-08-23T11:43:39.297Z,25.9
2018-08-23T11:44:29.060Z,25.9
2018-08-23T11:45:18.924Z,25.8
2018-08-23T11:46:09.630Z,25.9
2018-08-23T11:46:59.830Z,25.8
2018-08-23T11:47:49.714Z,25.9
2018-08-23T11:48:38.697Z,25.9
2018-08-23T11:49:28.667Z,25.9
2018-08-23T11:50:19.877Z,25.9
2018-08-23T11:51:09.144Z,25.9
2018-08-23T11:51:59.186Z,25.9
2018-08-23T11:52:49.304Z,25.9
2018-08-23T11:53:46.623Z,25.9
2018-08-23T11:54:29.352Z,25.9
2018-08-23T11:55:19.721Z,25.9
2018-08-23T11:56:10.099Z,25.9
2018-08-23T11:56:59.862Z,25.9
2018-08-23T11:57:49.068Z,25.9
2018-08-23T11:58:40.978Z,25.9
2018-08-23T11:59:29.560Z,25.9